Archiv-/Tagesdaten

--Timestamp---	Temp	Chill	HIndex	Humid	Dewpt	 Wind 	HiWind	WindDir	Rain 	Barom	Solar	 ET  	 UV 
--------------	----	-----	------	-----	-----	------	------	-------	-----	-----	-----	-----	----
20100401 00:00	4.3	2.8	4.3	72	-0.3	6	11	202	0.0	1008.3	0	0.025	0.0
20100401 00:05	4.3	2.8	4.3	72	-0.3	6	11	202	0.0	1008.2	0	0.000	0.0
20100401 00:10	4.2	4.2	4.2	73	-0.2	5	10	202	0.0	1008.3	0	0.000	0.0
20100401 00:15	4.0	2.4	4.0	73	-0.4	6	11	202	0.0	1008.3	0	0.000	0.0
20100401 00:20	3.9	2.3	3.9	73	-0.5	6	11	202	0.0	1008.3	0	0.000	0.0
20100401 00:25	3.8	2.2	3.8	74	-0.4	6	11	202	0.0	1008.4	0	0.000	0.0
20100401 00:30	3.8	1.7	3.8	74	-0.4	8	14	202	0.0	1008.4	0	0.000	0.0
20100401 00:35	3.7	2.1	3.7	74	-0.5	6	14	202	0.0	1008.4	0	0.000	0.0
20100401 00:40	3.7	2.1	3.7	74	-0.5	6	11	202	0.0	1008.5	0	0.000	0.0
20100401 00:45	3.6	2.0	3.6	74	-0.6	6	11	202	0.0	1008.5	0	0.000	0.0
20100401 00:50	3.6	3.6	3.6	74	-0.6	5	10	202	0.0	1008.6	0	0.000	0.0
20100401 00:55	3.5	3.5	3.5	74	-0.7	5	10	202	0.0	1008.5	0	0.000	0.0
20100401 01:00	3.5	3.5	3.5	74	-0.7	5	11	202	0.0	1008.5	0	0.025	0.0
20100401 01:05	3.4	1.7	3.4	74	-0.8	6	10	202	0.0	1008.5	0	0.000	0.0
20100401 01:10	3.3	3.3	3.3	75	-0.7	5	8	202	0.0	1008.5	0	0.000	0.0
20100401 01:15	3.3	1.6	3.3	75	-0.7	6	10	202	0.0	1008.5	0	0.000	0.0
20100401 01:20	3.2	3.2	3.2	75	-0.8	5	10	202	0.0	1008.5	0	0.000	0.0
20100401 01:25	3.2	3.2	3.2	75	-0.8	5	10	202	0.0	1008.5	0	0.000	0.0
20100401 01:30	3.1	3.1	3.1	75	-0.9	5	8	202	0.0	1008.5	0	0.000	0.0
20100401 01:35	2.9	2.9	2.9	75	-1.0	5	6	202	0.0	1008.4	0	0.000	0.0
20100401 01:40	2.8	2.8	2.8	76	-1.0	5	10	202	0.0	1008.5	0	0.000	0.0
20100401 01:45	2.7	2.7	2.7	76	-1.1	5	10	202	0.0	1008.5	0	0.000	0.0
20100401 01:50	2.7	0.9	2.7	77	-1.0	6	11	202	0.0	1008.3	0	0.000	0.0
20100401 01:55	2.7	0.9	2.7	76	-1.1	6	11	202	0.0	1008.3	0	0.000	0.0
20100401 02:00	2.7	2.7	2.7	76	-1.1	3	8	202	0.0	1008.2	0	0.025	0.0
20100401 02:05	2.6	2.6	2.6	76	-1.2	5	10	202	0.0	1008.3	0	0.000	0.0
20100401 02:10	2.4	2.4	2.4	76	-1.4	5	10	202	0.0	1008.2	0	0.000	0.0
20100401 02:15	2.4	2.4	2.4	77	-1.2	5	10	202	0.0	1008.2	0	0.000	0.0
20100401 02:20	2.3	2.3	2.3	77	-1.3	5	8	202	0.0	1008.2	0	0.000	0.0
20100401 02:25	2.3	0.5	2.3	77	-1.3	6	10	202	0.0	1008.2	0	0.000	0.0
20100401 02:30	2.3	2.3	2.3	77	-1.3	5	10	202	0.0	1008.2	0	0.000	0.0
20100401 02:35	2.2	2.2	2.2	77	-1.4	5	8	202	0.0	1008.2	0	0.000	0.0
20100401 02:40	2.2	2.2	2.2	77	-1.4	5	10	202	0.0	1008.2	0	0.000	0.0
20100401 02:45	2.2	2.2	2.2	77	-1.4	3	8	202	0.0	1008.1	0	0.000	0.0
20100401 02:50	2.1	0.2	2.1	77	-1.5	6	11	202	0.0	1007.9	0	0.000	0.0
20100401 02:55	2.0	2.0	2.0	77	-1.6	5	10	180	0.0	1008.0	0	0.000	0.0
20100401 03:00	2.1	0.2	2.1	77	-1.5	6	14	180	0.0	1007.9	0	0.025	0.0
20100401 03:05	2.1	2.1	2.1	77	-1.5	5	10	202	0.0	1007.9	0	0.000	0.0
20100401 03:10	2.1	2.1	2.1	77	-1.5	3	8	202	0.0	1007.7	0	0.000	0.0
20100401 03:15	2.1	2.1	2.1	77	-1.5	5	10	202	0.0	1007.6	0	0.000	0.0
20100401 03:20	2.0	2.0	2.0	77	-1.6	3	6	202	0.0	1007.5	0	0.000	0.0
20100401 03:25	1.9	1.9	1.9	77	-1.7	3	8	202	0.0	1007.5	0	0.000	0.0
20100401 03:30	1.9	1.9	1.9	77	-1.7	5	8	202	0.0	1007.5	0	0.000	0.0
20100401 03:35	1.9	1.9	1.9	77	-1.7	5	6	202	0.0	1007.5	0	0.000	0.0
20100401 03:40	1.9	1.9	1.9	77	-1.7	3	6	202	0.0	1007.3	0	0.000	0.0
20100401 03:45	1.9	1.9	1.9	77	-1.7	3	8	202	0.0	1007.5	0	0.000	0.0
20100401 03:50	1.8	1.8	1.8	77	-1.8	3	8	202	0.0	1007.3	0	0.000	0.0
20100401 03:55	1.8	1.8	1.8	78	-1.6	3	13	135	0.0	1007.3	0	0.000	0.0
20100401 04:00	1.8	1.8	1.8	77	-1.8	5	13	135	0.0	1007.3	0	0.025	0.0
20100401 04:05	1.9	0.1	1.9	77	-1.7	6	10	158	0.0	1007.3	0	0.000	0.0
20100401 04:10	2.1	0.2	2.1	77	-1.5	6	13	158	0.0	1007.3	0	0.000	0.0
20100401 04:15	2.1	0.3	2.1	76	-1.7	6	10	158	0.0	1007.3	0	0.000	0.0
20100401 04:20	2.1	2.1	2.1	76	-1.7	5	10	158	0.0	1007.3	0	0.000	0.0
20100401 04:25	2.1	0.3	2.1	76	-1.7	6	11	158	0.0	1007.1	0	0.000	0.0
20100401 04:30	2.2	0.3	2.2	76	-1.6	6	14	158	0.0	1007.3	0	0.000	0.0
20100401 04:35	2.2	-0.1	2.2	77	-1.4	8	16	158	0.0	1007.3	0	0.000	0.0
20100401 04:40	2.3	0.5	2.3	76	-1.5	6	14	158	0.0	1007.3	0	0.000	0.0
20100401 04:45	2.2	0.4	2.2	77	-1.4	6	14	158	0.0	1007.2	0	0.000	0.0
20100401 04:50	2.2	0.3	2.2	77	-1.4	6	10	135	0.0	1007.3	0	0.000	0.0
20100401 04:55	2.1	0.3	2.1	77	-1.5	6	10	158	0.0	1007.3	0	0.000	0.0
20100401 05:00	2.1	2.1	2.1	77	-1.5	5	11	158	0.0	1007.0	0	0.025	0.0
20100401 05:05	2.1	2.1	2.1	77	-1.5	2	6	135	0.0	1007.3	0	0.000	0.0
20100401 05:10	1.9	1.9	1.9	77	-1.7	3	10	135	0.0	1007.2	0	0.000	0.0
20100401 05:15	1.8	1.8	1.8	78	-1.6	3	6	135	0.0	1007.3	0	0.000	0.0
20100401 05:20	1.8	1.8	1.8	78	-1.6	3	14	135	0.0	1007.4	0	0.000	0.0
20100401 05:25	1.8	1.8	1.8	78	-1.6	5	10	158	0.0	1007.3	0	0.000	0.0
20100401 05:30	1.8	1.8	1.8	78	-1.6	3	10	158	0.0	1007.3	0	0.000	0.0
20100401 05:35	1.9	1.9	1.9	78	-1.5	5	11	158	0.0	1007.3	0	0.000	0.0
20100401 05:40	1.9	1.9	1.9	78	-1.5	5	10	158	0.0	1007.1	0	0.000	0.0
20100401 05:45	2.0	0.1	2.0	78	-1.4	6	14	158	0.0	1007.0	0	0.000	0.0
20100401 05:50	2.0	0.1	2.0	78	-1.4	6	14	158	0.0	1006.9	0	0.000	0.0
20100401 05:55	1.9	1.9	1.9	78	-1.5	3	10	135	0.0	1007.0	0	0.000	0.0
20100401 06:00	2.0	2.0	2.0	78	-1.4	5	10	158	0.0	1007.0	0	0.025	0.0
20100401 06:05	2.0	2.0	2.0	78	-1.4	5	10	158	0.0	1007.3	0	0.000	0.0
20100401 06:10	1.9	1.9	1.9	78	-1.5	2	6	158	0.0	1007.4	0	0.000	0.0
20100401 06:15	1.9	1.9	1.9	78	-1.5	3	6	158	0.0	1007.6	0	0.000	0.0
20100401 06:20	1.8	1.8	1.8	78	-1.6	2	5	158	0.0	1007.9	0	0.000	0.0
20100401 06:25	1.8	1.8	1.8	79	-1.5	2	5	158	0.0	1008.0	0	0.000	0.0
20100401 06:30	1.7	1.7	1.7	78	-1.8	2	5	158	0.0	1008.2	0	0.000	0.0
20100401 06:35	1.3	1.3	1.3	78	-2.1	2	6	158	0.0	1008.2	0	0.000	0.0
20100401 06:40	1.3	1.3	1.3	79	-1.9	2	5	158	0.0	1008.2	0	0.000	0.0
20100401 06:45	1.2	1.2	1.2	79	-2.1	2	5	158	0.0	1008.3	0	0.000	0.0
20100401 06:50	0.9	-1.1	0.9	79	-2.3	6	11	292	0.0	1008.6	0	0.000	0.0
20100401 06:55	0.6	-1.5	0.6	79	-2.7	6	10	270	0.0	1008.9	1	0.000	0.0
20100401 07:00	0.3	-2.3	0.3	81	-2.5	8	11	292	0.0	1009.2	6	0.000	0.0
20100401 07:05	0.3	-2.4	0.3	82	-2.4	8	16	292	0.0	1009.7	10	0.000	0.0
20100401 07:10	0.5	-2.1	0.5	83	-2.0	8	18	292	0.0	1009.8	18	0.000	0.0
20100401 07:15	0.7	-1.3	0.7	83	-1.8	6	16	292	0.0	1009.7	28	0.000	0.0
20100401 07:20	1.1	-1.5	1.1	83	-1.5	8	16	292	0.0	1009.8	35	0.000	0.0
20100401 07:25	1.3	-0.6	1.3	82	-1.4	6	10	292	0.0	1009.9	32	0.000	0.0
20100401 07:30	1.4	-1.1	1.4	82	-1.3	8	16	292	0.0	1010.0	33	0.000	0.0
20100401 07:35	1.7	-1.2	1.7	82	-1.1	10	16	292	0.0	1010.0	34	0.000	0.0
20100401 07:40	1.8	-1.0	1.8	81	-1.1	10	18	292	0.0	1010.1	44	0.000	0.0
20100401 07:45	2.1	-0.3	2.1	81	-0.9	8	16	270	0.0	1010.2	51	0.000	0.0
20100401 07:50	2.2	-0.6	2.2	81	-0.7	10	18	315	0.0	1010.1	45	0.000	0.0
20100401 07:55	2.4	0.1	2.4	81	-0.5	8	14	292	0.0	1010.5	43	0.000	0.0
20100401 08:00	2.5	-0.9	2.5	81	-0.4	13	21	315	0.0	1010.5	62	0.025	0.0
20100401 08:05	2.7	-0.4	2.7	81	-0.3	11	21	292	0.0	1010.6	88	0.000	0.0
20100401 08:10	2.8	-0.5	2.8	81	-0.1	13	23	292	0.0	1010.7	66	0.000	0.0
20100401 08:15	2.9	-0.4	2.9	81	0.0	13	24	292	0.0	1010.7	90	0.000	0.0
20100401 08:20	3.1	0.1	3.1	81	0.1	11	24	292	0.0	1010.8	92	0.000	0.0
20100401 08:25	3.1	-0.5	3.1	81	0.2	14	27	315	0.0	1010.8	92	0.000	0.0
20100401 08:30	3.2	-0.4	3.2	81	0.2	14	24	315	0.0	1010.9	76	0.000	0.0
20100401 08:35	3.2	-0.4	3.2	81	0.2	14	23	315	0.0	1011.0	83	0.000	0.0
20100401 08:40	3.2	-0.1	3.2	81	0.3	13	24	315	0.0	1011.3	102	0.000	0.0
20100401 08:45	3.2	-0.1	3.2	81	0.3	13	23	315	0.0	1011.4	78	0.000	0.0
20100401 08:50	3.3	0.0	3.3	81	0.3	13	23	315	0.0	1011.5	65	0.000	0.0
20100401 08:55	3.3	0.0	3.3	81	0.3	13	24	315	0.0	1011.6	65	0.000	0.0
20100401 09:00	3.3	0.7	3.3	81	0.3	10	21	315	0.0	1011.6	66	0.051	0.0
20100401 09:05	3.2	-0.1	3.2	81	0.3	13	24	292	0.0	1011.7	78	0.000	0.0
20100401 09:10	3.2	-0.1	3.2	81	0.3	13	24	315	0.0	1011.8	85	0.000	0.0
20100401 09:15	3.3	0.0	3.3	80	0.2	13	24	292	0.0	1011.9	94	0.000	0.0
20100401 09:20	3.3	-0.3	3.3	80	0.2	14	24	292	0.0	1012.0	99	0.000	0.0
20100401 09:25	3.3	-0.8	3.3	78	-0.2	18	29	315	0.0	1012.1	94	0.000	0.0
20100401 09:30	3.3	-0.5	3.3	77	-0.4	16	29	292	0.0	1012.2	94	0.000	0.0
20100401 09:35	3.3	-0.5	3.3	77	-0.4	16	34	292	0.0	1012.4	83	0.000	0.0
20100401 09:40	3.3	-0.3	3.3	77	-0.4	14	27	292	0.0	1012.6	67	0.000	0.0
20100401 09:45	3.3	-0.3	3.3	77	-0.4	14	26	315	0.0	1012.7	75	0.000	0.0
20100401 09:50	3.3	-1.0	3.3	76	-0.5	19	29	292	0.0	1012.7	103	0.000	0.2
20100401 09:55	3.2	-0.6	3.2	76	-0.6	16	29	292	0.0	1012.8	80	0.000	0.0
20100401 10:00	3.2	-0.9	3.2	77	-0.5	18	29	292	0.0	1012.9	75	0.051	0.0
20100401 10:05	3.2	-0.7	3.2	77	-0.5	16	31	292	0.0	1013.0	74	0.000	0.1
20100401 10:10	3.2	0.2	3.2	77	-0.5	11	21	292	0.0	1013.1	87	0.000	0.3
20100401 10:15	3.1	-0.5	3.1	77	-0.5	14	24	292	0.0	1013.1	73	0.000	0.0
20100401 10:20	3.0	-0.6	3.0	78	-0.5	14	29	315	0.0	1013.3	78	0.000	0.0
20100401 10:25	2.8	-0.8	2.8	78	-0.6	14	26	315	0.0	1013.4	77	0.000	0.0
20100401 10:30	2.7	-1.5	2.7	78	-0.8	18	27	315	0.0	1013.4	85	0.000	0.4
20100401 10:35	2.6	-1.2	2.6	80	-0.5	14	26	338	0.0	1013.4	91	0.000	0.5
20100401 10:40	2.5	-0.6	2.5	81	-0.4	11	21	315	0.0	1013.4	98	0.000	0.6
20100401 10:45	2.4	-0.7	2.4	82	-0.3	11	18	315	0.0	1013.4	95	0.000	0.6
20100401 10:50	2.5	-0.6	2.5	83	-0.1	11	24	315	0.0	1013.4	117	0.000	0.7
20100401 10:55	2.4	-1.6	2.4	82	-0.4	16	26	315	0.0	1013.5	128	0.000	0.7
20100401 11:00	2.4	-0.3	2.4	84	0.0	10	18	315	0.0	1013.7	147	0.051	0.9
20100401 11:05	2.5	0.7	2.5	84	0.1	6	16	292	0.0	1013.9	120	0.000	0.8
20100401 11:10	2.6	0.8	2.6	84	0.1	6	11	292	0.0	1013.9	113	0.000	0.7
20100401 11:15	2.5	0.2	2.5	84	0.1	8	18	292	0.0	1014.1	112	0.000	0.7
20100401 11:20	2.5	0.2	2.5	85	0.2	8	16	292	0.0	1014.1	86	0.000	0.5
20100401 11:25	2.4	-0.4	2.4	85	0.1	10	16	292	0.0	1014.1	71	0.000	0.3
20100401 11:30	2.3	-0.5	2.3	85	0.0	10	16	292	0.0	1014.2	83	0.000	0.4
20100401 11:35	2.3	-0.5	2.3	86	0.2	10	16	315	0.0	1014.2	142	0.000	1.0
20100401 11:40	2.3	0.5	2.3	86	0.2	6	14	292	0.0	1014.3	117	0.000	0.8
20100401 11:45	2.4	-0.3	2.4	85	0.2	10	18	292	0.0	1014.3	109	0.000	0.8
20100401 11:50	2.4	-0.7	2.4	84	-0.0	11	21	292	0.0	1014.3	102	0.000	0.8
20100401 11:55	2.3	-0.5	2.3	85	0.0	10	18	270	0.0	1014.4	95	0.000	0.7
20100401 12:00	2.1	0.3	2.1	85	-0.1	6	11	270	0.0	1014.4	112	0.051	0.8
20100401 12:05	2.1	2.1	2.1	86	-0.0	3	10	270	0.0	1014.6	105	0.000	0.8
20100401 12:10	2.1	2.1	2.1	86	-0.0	5	6	270	0.0	1014.6	108	0.000	0.8
20100401 12:15	2.1	2.1	2.1	86	-0.0	0	3	270	0.0	1014.7	106	0.000	0.8
20100401 12:20	2.1	2.1	2.1	85	-0.1	2	6	270	0.0	1014.7	97	0.000	0.7
20100401 12:25	2.2	2.2	2.2	85	-0.0	5	8	270	0.0	1014.7	91	0.000	0.7
20100401 12:30	2.3	0.5	2.3	85	0.0	6	10	292	0.0	1014.8	83	0.000	0.6
20100401 12:35	2.4	0.6	2.4	84	-0.0	6	11	292	0.2	1014.9	107	0.000	0.8
20100401 12:40	2.4	2.4	2.4	84	0.0	5	11	292	0.0	1014.9	101	0.000	0.8
20100401 12:45	2.4	0.6	2.4	82	-0.3	6	11	292	0.0	1014.9	108	0.000	0.8
20100401 12:50	2.4	0.1	2.4	81	-0.5	8	13	292	0.0	1015.0	126	0.000	0.9
20100401 12:55	2.6	2.6	2.6	82	-0.2	5	8	270	0.0	1015.0	128	0.000	0.9
20100401 13:00	2.6	2.6	2.6	81	-0.3	3	8	270	0.0	1015.0	114	0.051	0.8
20100401 13:05	2.6	0.8	2.6	83	0.0	6	11	270	0.0	1015.0	112	0.000	0.8
20100401 13:10	2.6	0.3	2.6	82	-0.2	8	19	270	0.0	1015.1	115	0.000	0.9
20100401 13:15	2.6	-0.5	2.6	82	-0.2	11	23	270	0.0	1015.1	115	0.000	0.9
20100401 13:20	2.5	-0.2	2.5	82	-0.3	10	21	292	0.0	1015.2	96	0.000	0.7
20100401 13:25	2.3	0.5	2.3	83	-0.3	6	11	292	0.2	1015.5	87	0.000	0.7
20100401 13:30	2.2	-0.2	2.2	84	-0.3	8	11	315	0.0	1015.5	111	0.000	0.9
20100401 13:35	2.2	2.2	2.2	85	-0.1	5	10	315	0.0	1015.5	109	0.000	0.9
20100401 13:40	2.1	2.1	2.1	86	0.0	3	8	315	0.2	1015.7	70	0.000	0.5
20100401 13:45	1.9	0.1	1.9	86	-0.1	6	13	270	0.0	1015.8	107	0.000	0.7
20100401 13:50	1.8	-0.1	1.8	87	-0.1	6	11	270	0.0	1015.8	155	0.000	1.2
20100401 13:55	1.8	-0.1	1.8	87	-0.1	6	11	270	0.2	1015.9	139	0.000	1.0
20100401 14:00	1.9	-1.0	1.9	87	-0.0	10	18	270	0.0	1016.0	112	0.051	0.9
20100401 14:05	1.8	-0.6	1.8	87	-0.1	8	16	292	0.0	1016.2	120	0.000	0.9
20100401 14:10	1.8	-1.1	1.8	87	-0.2	10	16	292	0.0	1016.2	137	0.000	1.0
20100401 14:15	1.8	-0.1	1.8	87	-0.2	6	10	270	0.0	1016.2	125	0.000	0.9
20100401 14:20	1.8	-0.6	1.8	88	0.1	8	14	270	0.2	1016.3	99	0.000	0.7
20100401 14:25	1.8	-1.1	1.8	88	0.0	10	21	248	0.0	1016.4	81	0.000	0.5
20100401 14:30	1.8	-0.6	1.8	88	0.1	8	14	270	0.2	1016.4	158	0.000	1.1
20100401 14:35	2.0	0.1	2.0	89	0.4	6	10	292	0.0	1016.3	179	0.000	1.2
20100401 14:40	2.2	-0.2	2.2	89	0.5	8	18	248	0.0	1016.2	162	0.000	1.2
20100401 14:45	2.3	-0.5	2.3	88	0.5	10	21	225	0.0	1016.2	181	0.000	1.2
20100401 14:50	2.3	-0.5	2.3	86	0.2	10	18	248	0.0	1016.2	209	0.000	1.3
20100401 14:55	2.4	0.1	2.4	86	0.3	8	16	248	0.0	1016.1	206	0.000	1.3
20100401 15:00	2.6	0.3	2.6	86	0.5	8	14	225	0.0	1016.2	211	0.076	1.3
20100401 15:05	2.7	0.5	2.7	85	0.5	8	14	225	0.0	1016.2	179	0.000	1.2
20100401 15:10	2.8	0.5	2.8	85	0.5	8	11	225	0.0	1016.3	182	0.000	1.2
20100401 15:15	2.9	1.2	2.9	82	0.1	6	11	248	0.0	1016.3	242	0.000	1.5
20100401 15:20	3.1	3.1	3.1	80	-0.1	5	14	248	0.0	1016.4	206	0.000	1.3
20100401 15:25	3.1	1.4	3.1	78	-0.4	6	14	248	0.0	1016.4	181	0.000	1.2
20100401 15:30	3.1	0.9	3.1	79	-0.2	8	14	248	0.0	1016.5	174	0.000	1.1
20100401 15:35	3.2	0.3	3.2	80	0.1	11	19	248	0.0	1016.6	169	0.000	1.0
20100401 15:40	3.3	0.8	3.3	80	0.2	10	18	248	0.0	1016.6	164	0.000	1.0
20100401 15:45	3.4	0.8	3.4	80	0.3	10	21	248	0.0	1016.6	133	0.000	0.8
20100401 15:50	3.3	0.4	3.3	79	0.0	11	19	225	0.0	1016.7	103	0.000	0.6
20100401 15:55	3.3	0.3	3.3	79	-0.0	11	21	225	0.0	1016.7	111	0.000	0.7
20100401 16:00	3.3	0.4	3.3	79	0.0	11	18	248	0.0	1016.7	183	0.076	1.0
20100401 16:05	3.4	0.2	3.4	78	-0.0	13	24	248	0.0	1016.5	187	0.000	1.0
20100401 16:10	3.5	1.0	3.5	79	0.2	10	19	248	0.0	1016.6	134	0.000	0.8
20100401 16:15	3.6	0.7	3.6	77	-0.0	11	23	248	0.0	1016.6	120	0.000	0.7
20100401 16:20	3.6	0.1	3.6	76	-0.3	14	26	248	0.0	1016.6	140	0.000	0.7
20100401 16:25	3.6	-0.2	3.6	74	-0.6	16	26	270	0.0	1016.8	148	0.000	0.8
20100401 16:30	3.6	0.1	3.6	74	-0.6	14	26	248	0.0	1016.8	118	0.000	0.7
20100401 16:35	3.6	-0.2	3.6	74	-0.6	16	29	270	0.0	1016.8	104	0.000	0.5
20100401 16:40	3.5	-0.3	3.5	73	-0.9	16	29	248	0.0	1016.9	107	0.000	0.6
20100401 16:45	3.4	-0.3	3.4	73	-0.9	16	24	248	0.0	1016.8	99	0.000	0.5
20100401 16:50	3.4	0.2	3.4	74	-0.7	13	24	270	0.0	1016.9	106	0.000	0.5
20100401 16:55	3.4	-0.1	3.4	73	-0.9	14	27	270	0.0	1017.0	83	0.000	0.0
20100401 17:00	3.4	0.2	3.4	73	-1.0	13	24	248	0.0	1017.0	82	0.076	0.0
20100401 17:05	3.4	0.2	3.4	74	-0.8	13	21	270	0.0	1016.9	85	0.000	0.0
20100401 17:10	3.3	-0.2	3.3	74	-0.9	14	26	270	0.0	1017.0	88	0.000	0.0
20100401 17:15	3.4	0.2	3.4	74	-0.8	13	21	248	0.0	1017.0	83	0.000	0.0
20100401 17:20	3.4	0.2	3.4	74	-0.7	13	21	248	0.0	1016.9	80	0.000	0.0
20100401 17:25	3.4	-0.1	3.4	74	-0.8	14	23	248	0.0	1017.0	67	0.000	0.0
20100401 17:30	3.4	0.2	3.4	74	-0.8	13	26	248	0.0	1017.0	62	0.000	0.0
20100401 17:35	3.3	-0.5	3.3	74	-0.9	16	26	225	0.0	1017.1	65	0.000	0.0
20100401 17:40	3.2	-0.6	3.2	74	-1.0	16	27	248	0.0	1017.1	66	0.000	0.0
20100401 17:45	3.2	-0.3	3.2	74	-1.0	14	24	248	0.0	1017.2	63	0.000	0.0
20100401 17:50	3.2	-0.4	3.2	74	-1.0	14	27	248	0.0	1017.1	65	0.000	0.0
20100401 17:55	3.2	-0.4	3.2	75	-0.8	14	24	248	0.0	1017.2	63	0.000	0.0
20100401 18:00	3.2	-0.4	3.2	75	-0.8	14	24	248	0.0	1017.3	56	0.051	0.0
20100401 18:05	3.2	-0.4	3.2	75	-0.8	14	26	248	0.0	1017.5	54	0.000	0.0
20100401 18:10	3.1	-1.0	3.1	74	-1.1	18	27	225	0.0	1017.5	54	0.000	0.0
20100401 18:15	3.1	-0.7	3.1	75	-0.9	16	24	225	0.0	1017.6	51	0.000	0.0
20100401 18:20	3.1	-0.2	3.1	75	-0.9	13	21	225	0.0	1017.6	42	0.000	0.0
20100401 18:25	3.1	0.5	3.1	76	-0.7	10	23	225	0.0	1017.6	38	0.000	0.0
20100401 18:30	3.1	0.5	3.1	76	-0.7	10	19	225	0.0	1017.6	40	0.000	0.0
20100401 18:35	3.1	-0.5	3.1	75	-0.9	14	23	225	0.0	1017.7	37	0.000	0.0
20100401 18:40	3.1	-0.3	3.1	74	-1.1	13	21	248	0.0	1017.7	29	0.000	0.0
20100401 18:45	3.1	0.1	3.1	75	-0.9	11	21	248	0.0	1017.8	22	0.000	0.0
20100401 18:50	3.1	0.1	3.1	75	-0.9	11	19	248	0.0	1017.8	19	0.000	0.0
20100401 18:55	3.0	0.0	3.0	75	-1.0	11	23	248	0.0	1017.9	19	0.000	0.0
20100401 19:00	3.0	0.4	3.0	74	-1.2	10	18	225	0.0	1018.0	22	0.051	0.0
20100401 19:05	3.0	0.4	3.0	75	-1.0	10	16	248	0.0	1017.7	21	0.000	0.0
20100401 19:10	2.9	0.7	2.9	75	-1.0	8	14	225	0.0	1017.7	18	0.000	0.0
20100401 19:15	2.9	1.2	2.9	76	-0.9	6	11	225	0.0	1017.7	19	0.000	0.0
20100401 19:20	2.9	0.7	2.9	75	-1.1	8	14	225	0.0	1017.6	17	0.000	0.0
20100401 19:25	2.9	0.7	2.9	76	-0.9	8	16	225	0.0	1017.5	11	0.000	0.0
20100401 19:30	2.8	0.6	2.8	76	-1.0	8	14	225	0.0	1017.5	6	0.000	0.0
20100401 19:35	2.8	1.0	2.8	77	-0.8	6	11	225	0.0	1017.6	0	0.000	0.0
20100401 19:40	2.7	1.0	2.7	77	-0.9	6	10	225	0.0	1017.6	0	0.000	0.0
20100401 19:45	2.7	1.0	2.7	77	-0.9	6	11	225	0.0	1017.8	0	0.000	0.0
20100401 19:50	2.7	1.0	2.7	77	-0.9	6	11	225	0.0	1017.7	0	0.000	0.0
20100401 19:55	2.7	0.9	2.7	76	-1.1	6	11	225	0.0	1017.8	0	0.000	0.0
20100401 20:00	2.7	2.7	2.7	76	-1.1	5	8	225	0.0	1017.9	0	0.025	0.0
20100401 20:05	2.7	0.9	2.7	76	-1.1	6	10	225	0.0	1017.9	0	0.000	0.0
20100401 20:10	2.6	2.6	2.6	77	-1.1	5	11	225	0.0	1017.9	0	0.000	0.0
20100401 20:15	2.5	2.5	2.5	77	-1.1	5	8	202	0.0	1018.0	0	0.000	0.0
20100401 20:20	2.4	2.4	2.4	78	-1.0	5	8	202	0.0	1017.9	0	0.000	0.0
20100401 20:25	2.4	2.4	2.4	78	-1.1	5	8	202	0.0	1017.9	0	0.000	0.0
20100401 20:30	2.3	2.3	2.3	79	-0.9	5	10	202	0.0	1018.0	0	0.000	0.0
20100401 20:35	2.3	0.5	2.3	79	-1.0	6	10	202	0.0	1018.0	0	0.000	0.0
20100401 20:40	2.2	0.4	2.2	79	-1.0	6	11	202	0.0	1018.1	0	0.000	0.0
20100401 20:45	2.2	0.3	2.2	79	-1.1	6	10	225	0.0	1018.2	0	0.000	0.0
20100401 20:50	2.2	0.3	2.2	80	-0.9	6	11	225	0.0	1018.2	0	0.000	0.0
20100401 20:55	2.1	0.2	2.1	80	-1.0	6	11	225	0.0	1018.2	0	0.000	0.0
20100401 21:00	2.1	2.1	2.1	80	-1.0	5	10	202	0.0	1018.3	0	0.025	0.0
20100401 21:05	2.1	2.1	2.1	81	-0.9	5	8	202	0.0	1018.3	0	0.000	0.0
20100401 21:10	2.0	0.1	2.0	81	-0.9	6	11	202	0.0	1018.4	0	0.000	0.0
20100401 21:15	2.0	2.0	2.0	81	-0.9	5	10	202	0.0	1018.5	0	0.000	0.0
20100401 21:20	2.0	2.0	2.0	81	-0.9	5	11	202	0.0	1018.5	0	0.000	0.0
20100401 21:25	2.0	0.1	2.0	80	-1.1	6	11	202	0.0	1018.5	0	0.000	0.0
20100401 21:30	2.0	0.1	2.0	80	-1.1	6	11	202	0.0	1018.5	0	0.000	0.0
20100401 21:35	1.9	0.1	1.9	80	-1.1	6	10	202	0.0	1018.5	0	0.000	0.0
20100401 21:40	1.9	1.9	1.9	80	-1.1	3	6	202	0.0	1018.5	0	0.000	0.0
20100401 21:45	1.9	1.9	1.9	81	-1.0	3	8	202	0.0	1018.7	0	0.000	0.0
20100401 21:50	1.8	1.8	1.8	81	-1.1	3	8	202	0.0	1018.9	0	0.000	0.0
20100401 21:55	1.8	1.8	1.8	82	-0.9	2	5	202	0.0	1018.8	0	0.000	0.0
20100401 22:00	1.8	1.8	1.8	82	-1.0	2	6	202	0.0	1018.9	0	0.025	0.0
20100401 22:05	1.7	1.7	1.7	82	-1.0	3	8	202	0.0	1019.0	0	0.000	0.0
20100401 22:10	1.6	1.6	1.6	82	-1.1	2	6	202	0.0	1019.0	0	0.000	0.0
20100401 22:15	1.6	1.6	1.6	83	-1.0	3	6	202	0.0	1019.0	0	0.000	0.0
20100401 22:20	1.5	1.5	1.5	83	-1.1	5	10	202	0.0	1019.0	0	0.000	0.0
20100401 22:25	1.4	1.4	1.4	83	-1.2	5	8	202	0.0	1019.0	0	0.000	0.0
20100401 22:30	1.3	1.3	1.3	83	-1.2	5	8	202	0.0	1018.9	0	0.000	0.0
20100401 22:35	1.3	1.3	1.3	83	-1.2	5	8	202	0.0	1019.0	0	0.000	0.0
20100401 22:40	1.3	1.3	1.3	83	-1.2	5	10	202	0.0	1019.1	0	0.000	0.0
20100401 22:45	1.3	1.3	1.3	83	-1.2	5	8	202	0.0	1019.1	0	0.000	0.0
20100401 22:50	1.2	1.2	1.2	83	-1.3	5	8	202	0.0	1019.2	0	0.000	0.0
20100401 22:55	1.2	1.2	1.2	83	-1.3	5	11	202	0.0	1019.2	0	0.000	0.0
20100401 23:00	1.2	1.2	1.2	83	-1.4	5	8	202	0.0	1019.2	0	0.000	0.0
20100401 23:05	1.1	1.1	1.1	83	-1.4	5	10	202	0.0	1019.3	0	0.000	0.0
20100401 23:10	1.1	1.1	1.1	83	-1.5	5	10	202	0.0	1019.2	0	0.000	0.0
20100401 23:15	1.1	1.1	1.1	83	-1.5	3	8	202	0.0	1019.3	0	0.000	0.0
20100401 23:20	1.1	1.1	1.1	83	-1.5	5	10	202	0.0	1019.3	0	0.000	0.0
20100401 23:25	1.1	1.1	1.1	83	-1.5	5	10	202	0.0	1019.2	0	0.000	0.0
20100401 23:30	1.1	1.1	1.1	83	-1.4	3	10	202	0.0	1019.2	0	0.000	0.0
20100401 23:35	1.1	1.1	1.1	83	-1.5	3	5	202	0.0	1019.2	0	0.000	0.0
20100401 23:40	1.1	1.1	1.1	83	-1.5	3	6	202	0.0	1019.3	0	0.000	0.0
20100401 23:45	1.1	1.1	1.1	83	-1.5	2	5	202	0.0	1019.3	0	0.000	0.0
20100401 23:50	1.1	1.1	1.1	83	-1.5	0	2	202	0.0	1019.3	0	0.000	0.0
20100401 23:55	1.0	1.0	1.0	89	-0.6	2	3	202	0.0	1019.3	0	0.000	0.0



Please note the license to use and transfer of this data:
http://creativecommons.org/licenses/by-nc-sa/3.0/deed.en

Bitte beachten sie die Lizenz zur Verwertung und Weitergabe der Daten:
http://creativecommons.org/licenses/by-nc-sa/3.0/deed.de

zurück zur Übersicht der Archivdaten (Monats und Tagesdaten)

Cookies helfen bei der Bereitstellung von Inhalten. Durch die Nutzung dieser Seiten erklärst du dich damit einverstanden, dass Cookies auf deinem Rechner gespeichert werden. Weitere Information